Pagrindinis puslapis
METAR-TAF:

METAR-TAF

Oro uostai :

Malė, Maldyvai

platuma: 04-12N, ilguma: 073-32E, Aukštis: 2 m

Dabartinis oras

Ataskaita buvo paskelbta 41 minutes, ne 21:00 UTC
Vėjas 10 kt iš Pietryčių
Temperatūra 27°C
Drėgmė 79%
Slėgis 1009 hPa
Matomumas 10 km arba daugiau
Mažai debesys ne aukštis 1700 ft, aukštai iškilę kamuoliniai debesys.
Išsisklaidę debesys ne aukštis 12000 ft

METAR: VRMM 152100Z 14010KT 9999 FEW017TCU SCT120 27/23 Q1009 NOSIG

Laikas: 02:41 (21:41 UTC)

Prognozė

Ataskaita buvo paskelbta 4 valandos ir 41 minutes, ne 17:00 UTC
Prognozė galioja nuo 15 metu 18 UTC su 16 metu 24 UTC
Vėjas 13 kt iš Rytų/Pietryčių
Matomumas: 9000 m
Išsisklaidę debesys ne aukštis 1700 ft, aukštai iškilę kamuoliniai debesys.
Laikinai
nuo 15 metu 18 UTC su 15 metu 24 UTC
Matomumas: 4000 m
Mažai debesys ne aukštis 1700 ft, Liūtiniai kamuoliniai debesys.
perkūnija, lietus

TAF: VRMM 151700Z 1518/1624 12013KT 9000 SCT017TCU TEMPO 1518/1524 4000 TSRA FEW017CB

Orai ataskaitas ir orų prognozės (METAR, TAF).

turimą stotys yra geltonos ir raudonos taškus žemėlapyje.

Perkelti pele per norėdami pamatyti stoties vardą.

Tada spustelėkite, norėdami matyti oro stebėjimo ir prognozės.

Norėdami pakeisti žemėlapį: spustelėkite ant žalios mygtukų su juodo kryžiaus žemyn,; žalią mygtuką su brūkšneliu, jei norite nutolinti; arba žalių rodyklių gretimoms žemėlapius.


METAR-TAF: